Time;durP1;ratioP1;P1;durP2;ratioP2;P2;SDS_P1;SDS_P2;PMS_P1;PMS_P2;Temp;Humidity;BMP_temperature;BMP_pressure;BME280_temperature;BME280_humidity;BME280_pressure;Samples;Min_cycle;Max_cycle;Signal;HPM_P1;HPM_P2
2023/07/06 00:01:45;;;;;;;12.20;4.40;;;;;;;17.38;74.47;97073.65;111063;1237;99800;-82
2023/07/06 00:04:12;;;;;;;5.90;3.90;;;;;;;17.35;74.67;97082.35;111093;1236;94097;-82
2023/07/06 00:06:39;;;;;;;6.30;4.10;;;;;;;17.35;74.79;97085.80;111133;1239;94164;-82
2023/07/06 00:09:05;;;;;;;5.60;3.30;;;;;;;17.25;74.57;97084.25;111102;1236;94123;-81
2023/07/06 00:11:37;;;;;;;6.90;4.20;;;;;;;17.14;74.86;97087.66;111064;1236;95227;-81
2023/07/06 00:14:06;;;;;;;8.60;4.70;;;;;;;17.05;75.01;97087.40;111105;1238;100168;-82
2023/07/06 00:16:33;;;;;;;5.20;4.00;;;;;;;17.03;75.29;97091.48;111069;1236;94080;-82
2023/07/06 00:19:00;;;;;;;6.90;4.40;;;;;;;17.06;75.20;97093.41;111149;1240;94137;-81
2023/07/06 00:21:27;;;;;;;6.70;3.70;;;;;;;17.08;75.32;97099.60;111106;1236;94159;-82
2023/07/06 00:23:55;;;;;;;5.10;4.40;;;;;;;17.08;75.06;97101.73;111069;1241;94192;-82
2023/07/06 00:26:21;;;;;;;5.00;3.90;;;;;;;17.04;74.96;97099.09;111091;1236;94186;-81
2023/07/06 00:28:49;;;;;;;10.80;4.70;;;;;;;16.98;75.14;97099.45;111105;1241;94430;-82
2023/07/06 00:31:21;;;;;;;7.50;4.50;;;;;;;16.94;75.21;97104.00;111172;1236;94723;-82
2023/07/06 00:33:49;;;;;;;6.70;4.40;;;;;;;16.95;75.16;97101.55;111147;1237;102342;-81
2023/07/06 00:36:15;;;;;;;8.50;4.50;;;;;;;16.92;75.46;97102.67;111103;1236;109073;-82
2023/07/06 00:38:42;;;;;;;8.30;4.00;;;;;;;16.92;75.35;97100.28;111082;1237;94136;-81
2023/07/06 00:41:09;;;;;;;6.50;4.10;;;;;;;16.91;75.60;97096.39;111090;1237;94136;-82
2023/07/06 00:43:53;;;;;;;6.60;4.10;;;;;;;16.87;75.47;97090.27;111081;1236;94183;-81
2023/07/06 00:46:21;;;;;;;8.60;4.20;;;;;;;16.81;75.51;97091.55;111132;1237;102677;-82
2023/07/06 00:48:51;;;;;;;11.00;4.20;;;;;;;16.77;75.60;97092.02;111114;1238;100370;-82
2023/07/06 00:51:21;;;;;;;4.60;3.90;;;;;;;16.76;75.62;97092.62;111079;1238;98919;-82
2023/07/06 00:53:52;;;;;;;7.10;4.50;;;;;;;16.75;75.69;97094.45;111079;1238;94203;-82
2023/07/06 00:56:23;;;;;;;7.50;4.50;;;;;;;16.72;75.67;97099.39;111134;1236;94085;-81
2023/07/06 00:58:53;;;;;;;7.50;4.30;;;;;;;16.71;75.84;97102.20;111132;1236;102119;-81
2023/07/06 01:01:23;;;;;;;7.30;3.80;;;;;;;16.68;75.77;97102.87;111107;1238;101433;-81
2023/07/06 01:03:53;;;;;;;5.70;4.00;;;;;;;16.67;75.85;97104.29;111111;1239;98998;-81
2023/07/06 01:06:29;;;;;;;7.20;4.00;;;;;;;16.66;75.81;97105.27;111029;1238;94501;-81
2023/07/06 01:08:57;;;;;;;5.80;4.20;;;;;;;16.62;75.93;97107.06;111115;1240;94696;-82
2023/07/06 01:11:25;;;;;;;9.00;4.00;;;;;;;16.60;75.89;97117.27;111107;1238;102289;-82
2023/07/06 01:13:53;;;;;;;4.50;3.40;;;;;;;16.57;75.96;97121.86;111092;1238;94201;-81
2023/07/06 01:16:42;;;;;;;6.40;3.50;;;;;;;16.55;76.00;97123.00;111077;1241;98492;-80
2023/07/06 01:19:45;;;;;;;5.80;3.50;;;;;;;16.54;76.10;97120.70;111084;1238;94112;-80
2023/07/06 01:22:30;;;;;;;5.00;3.50;;;;;;;16.53;76.02;97120.70;111101;1238;94223;-81
2023/07/06 01:25:34;;;;;;;5.50;3.50;;;;;;;16.53;76.14;97122.83;111098;1236;101097;-81
2023/07/06 01:28:15;;;;;;;4.40;3.90;;;;;;;16.52;76.31;97120.46;111129;1236;101718;-81
2023/07/06 01:31:05;;;;;;;4.70;3.20;;;;;;;16.51;76.09;97120.61;111070;1236;99899;-81
2023/07/06 01:33:43;;;;;;;7.20;3.60;;;;;;;16.49;76.04;97120.98;111082;1238;94104;-81
2023/07/06 01:36:34;;;;;;;4.50;3.60;;;;;;;16.45;76.06;97119.29;111124;1238;94491;-80
2023/07/06 01:39:20;;;;;;;7.90;3.70;;;;;;;16.41;75.95;97123.92;111124;1240;102337;-81
2023/07/06 01:42:07;;;;;;;4.50;3.40;;;;;;;16.37;76.13;97123.57;111092;1238;101264;-80
2023/07/06 01:44:34;;;;;;;5.50;3.80;;;;;;;16.30;76.24;97117.59;111061;1238;98838;-81
2023/07/06 01:47:02;;;;;;;4.80;3.60;;;;;;;16.27;76.28;97118.32;111059;1237;94176;-81
2023/07/06 01:49:28;;;;;;;7.60;3.60;;;;;;;16.27;76.30;97119.62;111119;1236;94269;-81
2023/07/06 01:52:03;;;;;;;6.60;3.30;;;;;;;16.26;76.14;97112.85;111114;1238;94103;-81
2023/07/06 01:54:58;;;;;;;7.30;3.20;;;;;;;16.22;76.06;97112.11;111130;1238;101538;-81
2023/07/06 01:57:31;;;;;;;5.00;3.70;;;;;;;16.15;76.19;97114.96;111090;1238;99632;-81
2023/07/06 02:00:04;;;;;;;4.20;3.50;;;;;;;16.07;76.23;97113.89;111067;1236;94174;-81
2023/07/06 02:02:33;;;;;;;5.90;3.70;;;;;;;16.01;76.48;97113.64;111131;1237;94395;-81
2023/07/06 02:05:02;;;;;;;6.40;4.20;;;;;;;16.02;76.47;97113.21;111139;1238;102183;-81
2023/07/06 02:07:31;;;;;;;6.70;3.50;;;;;;;15.97;76.49;97112.92;111104;1236;101376;-81
2023/07/06 02:09:58;;;;;;;7.00;3.50;;;;;;;15.86;76.59;97114.91;111060;1240;108606;-82
2023/07/06 02:12:24;;;;;;;7.40;3.80;;;;;;;15.78;76.73;97117.42;111067;1237;94175;-81
2023/07/06 02:14:53;;;;;;;6.80;3.80;;;;;;;15.76;76.87;97115.43;111166;1236;94211;-81
2023/07/06 02:17:20;;;;;;;7.20;4.50;;;;;;;15.76;76.94;97116.08;111103;1237;94197;-81
2023/07/06 02:19:46;;;;;;;5.40;3.80;;;;;;;15.70;77.08;97114.09;111081;1237;94157;-81
2023/07/06 02:22:12;;;;;;;6.50;4.10;;;;;;;15.68;77.39;97115.98;111077;1237;94374;-81
2023/07/06 02:24:39;;;;;;;7.90;3.70;;;;;;;15.70;77.38;97113.59;111165;1236;94201;-81
2023/07/06 02:27:05;;;;;;;5.40;3.60;;;;;;;15.69;77.54;97113.21;111096;1239;102274;-81
2023/07/06 02:29:33;;;;;;;5.20;3.70;;;;;;;15.70;77.54;97123.28;111127;1238;94114;-81
2023/07/06 02:31:59;;;;;;;5.60;3.60;;;;;;;15.67;77.52;97123.14;111092;1240;94216;-81
2023/07/06 02:34:26;;;;;;;8.00;4.00;;;;;;;15.61;77.43;97123.10;111082;1240;94151;-81
2023/07/06 02:36:53;;;;;;;5.60;3.60;;;;;;;15.60;77.64;97129.35;111210;1237;94133;-81
2023/07/06 02:39:24;;;;;;;6.50;3.80;;;;;;;15.63;77.73;97130.05;111099;1236;101582;-81
2023/07/06 02:41:53;;;;;;;6.70;3.90;;;;;;;15.61;77.83;97127.46;111092;1237;100065;-81
2023/07/06 02:44:20;;;;;;;6.10;4.10;;;;;;;15.62;77.89;97132.92;111087;1237;94217;-81
2023/07/06 02:46:47;;;;;;;8.70;4.40;;;;;;;15.65;77.79;97132.03;111149;1237;94447;-81
2023/07/06 02:49:15;;;;;;;5.50;4.00;;;;;;;15.62;77.94;97132.14;111092;1236;94147;-81
2023/07/06 02:51:42;;;;;;;6.50;4.20;;;;;;;15.59;77.76;97136.02;111120;1236;101483;-81
2023/07/06 02:54:13;;;;;;;6.60;3.80;;;;;;;15.61;77.79;97137.90;111090;1237;94163;-82
2023/07/06 02:56:41;;;;;;;6.10;3.50;;;;;;;15.63;77.86;97147.23;111064;1236;94077;-81
2023/07/06 02:59:09;;;;;;;5.20;3.50;;;;;;;15.57;77.71;97148.45;111128;1238;94951;-81
2023/07/06 03:01:36;;;;;;;4.80;3.90;;;;;;;15.53;77.72;97154.78;111075;1240;94213;-81
2023/07/06 03:04:09;;;;;;;8.60;4.00;;;;;;;15.49;77.72;97157.55;110770;1241;94227;-81
2023/07/06 03:06:39;;;;;;;6.00;3.40;;;;;;;15.42;77.84;97166.81;110748;1241;100030;-81
2023/07/06 03:09:07;;;;;;;8.70;3.80;;;;;;;15.42;77.99;97169.79;110769;1241;94253;-81
2023/07/06 03:11:34;;;;;;;7.60;3.90;;;;;;;15.39;78.06;97173.23;110733;1241;94353;-81
2023/07/06 03:14:02;;;;;;;5.50;3.40;;;;;;;15.38;77.98;97169.84;110764;1241;94276;-81
2023/07/06 03:16:34;;;;;;;6.40;3.20;;;;;;;15.39;77.78;97168.89;110764;1241;101541;-81
2023/07/06 03:19:00;;;;;;;5.90;2.90;;;;;;;15.37;77.68;97163.02;110772;1241;98653;-81
2023/07/06 03:21:28;;;;;;;5.20;3.90;;;;;;;15.31;77.94;97163.91;110779;1241;94223;-81
2023/07/06 03:23:54;;;;;;;7.20;3.80;;;;;;;15.30;77.82;97167.16;110835;1241;94139;-81
2023/07/06 03:26:20;;;;;;;6.80;3.50;;;;;;;15.31;77.93;97175.50;110789;1241;94180;-81
2023/07/06 03:28:47;;;;;;;7.40;3.90;;;;;;;15.33;77.98;97181.35;110548;1241;334837;-81
2023/07/06 03:31:14;;;;;;;5.00;4.10;;;;;;;15.33;77.85;97190.15;110752;1241;94594;-81
2023/07/06 03:33:41;;;;;;;4.60;3.20;;;;;;;15.25;77.73;97193.60;110759;1241;94256;-82
2023/07/06 03:36:08;;;;;;;6.20;3.50;;;;;;;15.21;77.77;97197.47;110754;1241;94247;-81
2023/07/06 03:38:35;;;;;;;7.80;3.90;;;;;;;15.23;78.06;97197.52;110732;1240;94433;-82
2023/07/06 03:41:04;;;;;;;6.60;3.70;;;;;;;15.23;78.19;97196.10;110808;1241;94157;-81
2023/07/06 03:43:34;;;;;;;7.00;3.70;;;;;;;15.24;78.31;97191.14;111078;1237;94214;-81
2023/07/06 03:46:03;;;;;;;6.90;3.70;;;;;;;15.24;78.31;97192.98;111138;1237;94125;-81
2023/07/06 03:48:29;;;;;;;4.20;3.50;;;;;;;15.26;78.38;97201.02;111062;1238;100895;-81
2023/07/06 03:51:05;;;;;;;5.40;3.80;;;;;;;15.30;78.31;97198.59;111102;1238;94238;-81
2023/07/06 03:53:32;;;;;;;7.90;4.10;;;;;;;15.32;78.43;97199.88;111089;1236;99831;-82
2023/07/06 03:55:58;;;;;;;7.40;3.80;;;;;;;15.37;78.88;97209.42;111094;1237;94131;-81
2023/07/06 03:58:25;;;;;;;5.50;4.10;;;;;;;15.39;79.01;97210.44;111124;1238;94141;-80
2023/07/06 04:00:51;;;;;;;4.90;4.00;;;;;;;15.38;78.89;97212.15;111172;1238;94331;-81
2023/07/06 04:03:18;;;;;;;8.10;4.70;;;;;;;15.38;78.96;97208.50;111159;1238;94122;-81
2023/07/06 04:05:47;;;;;;;6.30;4.60;;;;;;;15.44;79.04;97206.38;111043;1236;94080;-82
2023/07/06 04:08:17;;;;;;;5.40;4.40;;;;;;;15.51;79.19;97212.20;111126;1238;94105;-81
2023/07/06 04:10:44;;;;;;;6.70;4.50;;;;;;;15.56;79.31;97214.55;111099;1237;101078;-81
2023/07/06 04:13:13;;;;;;;6.00;4.90;;;;;;;15.60;79.33;97216.84;111111;1236;94561;-81
2023/07/06 04:15:44;;;;;;;6.70;4.80;;;;;;;15.66;79.29;97225.16;111130;1237;100137;-81
2023/07/06 04:18:11;;;;;;;11.70;4.50;;;;;;;15.74;79.28;97231.59;111067;1237;94150;-82
2023/07/06 04:20:38;;;;;;;7.60;4.70;;;;;;;15.79;79.15;97237.56;111135;1237;94108;-81
2023/07/06 04:23:04;;;;;;;6.10;4.80;;;;;;;15.83;79.15;97242.85;111111;1238;94573;-81
2023/07/06 04:25:33;;;;;;;8.00;4.50;;;;;;;15.90;79.36;97245.02;111109;1237;94121;-82
2023/07/06 04:28:03;;;;;;;5.90;4.30;;;;;;;15.98;79.43;97240.03;111074;1236;94138;-82
2023/07/06 04:30:33;;;;;;;6.50;4.90;;;;;;;16.05;79.58;97242.26;111124;1237;94088;-82
2023/07/06 04:33:00;;;;;;;8.30;4.00;;;;;;;16.11;79.71;97240.65;111102;1236;94643;-82
2023/07/06 04:35:27;;;;;;;7.20;4.40;;;;;;;16.18;79.65;97246.29;111097;1236;102285;-82
2023/07/06 04:37:54;;;;;;;9.80;5.10;;;;;;;16.25;79.46;97246.41;111121;1238;94573;-82
2023/07/06 04:40:21;;;;;;;9.70;5.00;;;;;;;16.32;79.55;97248.63;111089;1238;94158;-82
2023/07/06 04:42:50;;;;;;;9.40;5.00;;;;;;;16.38;79.33;97247.94;111106;1236;94094;-82
2023/07/06 04:45:18;;;;;;;7.30;5.60;;;;;;;16.42;79.23;97242.44;111088;1236;94606;-82
2023/07/06 04:47:45;;;;;;;8.00;5.50;;;;;;;16.46;79.24;97239.55;111105;1237;94664;-82
2023/07/06 04:50:17;;;;;;;11.10;5.40;;;;;;;16.47;79.11;97239.50;111106;1236;94207;-82
2023/07/06 04:52:45;;;;;;;;;;;;;;;16.50;79.27;97242.94;111102;1236;100074;-82
2023/07/06 04:55:12;;;;;;;5.60;4.70;;;;;;;16.58;79.37;97251.98;111084;1237;94091;-82
2023/07/06 04:57:39;;;;;;;6.20;4.50;;;;;;;16.67;79.39;97254.34;111147;1236;94115;-82
2023/07/06 05:00:12;;;;;;;7.80;4.90;;;;;;;16.76;79.19;97257.73;111112;1236;94200;-82
2023/07/06 05:02:39;;;;;;;7.20;4.50;;;;;;;16.83;79.08;97265.06;111108;1236;101438;-82
2023/07/06 05:05:05;;;;;;;10.40;5.70;;;;;;;16.90;78.99;97270.44;111120;1236;94108;-82
2023/07/06 05:07:32;;;;;;;8.70;5.20;;;;;;;16.99;78.97;97273.43;111114;1238;94164;-82
2023/07/06 05:09:58;;;;;;;5.60;4.90;;;;;;;17.08;78.85;97280.35;111246;1236;94158;-82
2023/07/06 05:12:25;;;;;;;8.80;5.20;;;;;;;17.15;79.36;97281.73;111131;1236;102025;-82
2023/07/06 05:14:52;;;;;;;8.50;4.70;;;;;;;17.20;79.34;97278.80;111090;1237;94143;-82
2023/07/06 05:17:18;;;;;;;6.20;4.70;;;;;;;17.27;79.30;97276.08;111092;1236;94114;-82
2023/07/06 05:19:45;;;;;;;6.20;5.10;;;;;;;17.34;79.20;97276.86;111144;1237;94331;-82
2023/07/06 05:22:12;;;;;;;7.50;5.10;;;;;;;17.40;79.19;97277.08;111119;1238;94182;-82
2023/07/06 05:24:39;;;;;;;7.80;4.60;;;;;;;17.43;79.25;97277.83;111168;1236;94101;-82
2023/07/06 05:27:06;;;;;;;9.40;5.30;;;;;;;17.50;79.39;97276.38;111084;1236;94047;-82
2023/07/06 05:29:33;;;;;;;8.40;5.10;;;;;;;17.59;79.52;97277.92;111130;1236;94147;-83
2023/07/06 05:31:59;;;;;;;10.70;5.00;;;;;;;17.66;79.49;97282.16;111155;1237;94348;-83
2023/07/06 05:34:29;;;;;;;7.60;4.80;;;;;;;17.71;78.97;97281.33;111167;1236;94737;-84
2023/07/06 05:36:55;;;;;;;7.90;4.80;;;;;;;17.74;78.65;97289.39;111108;1240;94115;-83
2023/07/06 05:39:22;;;;;;;8.60;5.10;;;;;;;17.76;78.77;97295.40;111125;1236;94490;-83
2023/07/06 05:41:48;;;;;;;7.60;4.60;;;;;;;17.76;78.21;97297.59;111131;1236;94169;-82
2023/07/06 05:44:15;;;;;;;6.70;4.80;;;;;;;17.79;78.11;97300.29;111197;1236;94175;-82
2023/07/06 05:46:41;;;;;;;8.70;5.20;;;;;;;17.84;78.12;97297.07;111085;1236;94130;-83
2023/07/06 05:49:07;;;;;;;7.60;4.60;;;;;;;17.89;78.03;97300.00;111133;1236;94110;-83
2023/07/06 05:51:33;;;;;;;13.40;5.50;;;;;;;17.96;78.18;97302.25;111098;1236;94148;-83
2023/07/06 05:54:00;;;;;;;5.70;4.70;;;;;;;18.02;77.69;97299.94;111192;1237;94452;-82
2023/07/06 05:56:26;;;;;;;8.20;4.90;;;;;;;18.07;77.16;97299.38;111080;1236;94519;-83
2023/07/06 05:58:52;;;;;;;9.70;4.50;;;;;;;18.12;76.52;97298.05;111163;1236;94556;-83
2023/07/06 06:01:19;;;;;;;6.20;5.00;;;;;;;18.16;75.99;97301.69;111137;1237;94203;-83
2023/07/06 06:03:46;;;;;;;6.70;4.80;;;;;;;18.19;76.06;97301.22;111158;1237;94210;-83
2023/07/06 06:06:12;;;;;;;8.40;5.70;;;;;;;18.22;75.69;97300.71;111071;1238;94136;-83
2023/07/06 06:08:38;;;;;;;10.10;5.10;;;;;;;18.25;75.30;97314.10;111088;1237;94140;-83
2023/07/06 06:11:05;;;;;;;7.30;5.10;;;;;;;18.29;75.46;97319.31;111121;1236;94189;-83
2023/07/06 06:13:31;;;;;;;6.60;4.70;;;;;;;18.30;75.24;97324.09;111190;1236;94489;-82
2023/07/06 06:15:58;;;;;;;7.90;5.40;;;;;;;18.32;74.86;97328.04;110790;1239;94235;-82
2023/07/06 06:18:25;;;;;;;8.30;5.40;;;;;;;18.32;74.62;97331.54;110865;1239;94320;-83
2023/07/06 06:20:51;;;;;;;9.40;4.90;;;;;;;18.33;74.74;97333.63;110846;1239;94211;-83
2023/07/06 06:23:20;;;;;;;9.20;5.20;;;;;;;18.34;74.83;97331.29;110815;1239;94193;-82
2023/07/06 06:25:47;;;;;;;8.80;5.20;;;;;;;18.32;75.19;97332.15;110845;1239;94384;-82
2023/07/06 06:28:14;;;;;;;6.30;4.50;;;;;;;18.30;75.03;97329.61;110786;1239;94202;-83
2023/07/06 06:30:40;;;;;;;9.80;5.60;;;;;;;18.31;74.99;97323.50;110829;1239;94152;-82
2023/07/06 06:33:07;;;;;;;13.30;5.70;;;;;;;18.32;75.25;97322.25;110950;1239;94306;-82
2023/07/06 06:35:34;;;;;;;9.50;5.20;;;;;;;18.33;75.63;97321.81;110808;1239;99998;-84
2023/07/06 06:38:03;;;;;;;7.70;5.40;;;;;;;18.39;75.54;97325.35;110845;1239;94195;-82
2023/07/06 06:40:31;;;;;;;10.40;5.90;;;;;;;18.46;75.03;97329.55;110740;1240;94413;-82
2023/07/06 06:43:00;;;;;;;8.20;5.90;;;;;;;18.51;75.14;97328.53;110847;1239;102325;-83
2023/07/06 06:45:26;;;;;;;9.70;6.30;;;;;;;18.54;75.00;97333.88;110840;1239;101913;-83
2023/07/06 06:47:53;;;;;;;6.50;5.40;;;;;;;18.56;74.75;97331.20;111032;1238;94189;-83
2023/07/06 06:50:20;;;;;;;22.10;6.60;;;;;;;18.57;74.49;97335.05;111100;1236;94098;-81
2023/07/06 06:52:50;;;;;;;16.20;7.10;;;;;;;18.57;74.54;97339.00;111123;1236;94086;-83
2023/07/06 06:55:17;;;;;;;6.60;5.90;;;;;;;18.57;74.35;97336.64;111086;1236;102172;-83
2023/07/06 06:57:44;;;;;;;9.40;6.30;;;;;;;18.60;74.13;97336.77;111143;1236;94451;-84
2023/07/06 07:00:14;;;;;;;8.20;5.60;;;;;;;18.60;73.76;97334.96;111100;1236;94160;-81
2023/07/06 07:02:41;;;;;;;9.20;6.00;;;;;;;18.62;73.69;97338.86;111048;1236;94115;-82
2023/07/06 07:05:09;;;;;;;8.40;6.00;;;;;;;18.65;73.69;97341.67;111146;1236;94141;-83
2023/07/06 07:07:38;;;;;;;10.20;5.30;;;;;;;18.68;73.59;97342.20;111111;1236;111677;-82
2023/07/06 07:10:09;;;;;;;9.10;5.60;;;;;;;18.71;73.49;97345.37;111136;1236;100884;-82
2023/07/06 07:12:37;;;;;;;9.40;5.60;;;;;;;18.71;73.20;97348.98;111119;1236;100029;-81
2023/07/06 07:15:04;;;;;;;10.00;5.40;;;;;;;18.72;73.00;97353.45;111073;1239;94175;-82
2023/07/06 07:17:31;;;;;;;8.80;5.60;;;;;;;18.72;72.79;97354.02;111159;1236;94146;-83
2023/07/06 07:19:57;;;;;;;7.70;5.30;;;;;;;18.74;72.48;97350.64;111151;1236;94191;-83
2023/07/06 07:22:24;;;;;;;9.60;5.50;;;;;;;18.75;72.32;97356.10;111139;1236;94196;-82
2023/07/06 07:24:50;;;;;;;10.30;5.50;;;;;;;18.75;72.18;97356.48;111193;1236;94276;-82
2023/07/06 07:27:16;;;;;;;10.50;5.30;;;;;;;18.73;72.29;97357.02;111170;1236;94416;-82
2023/07/06 07:29:43;;;;;;;10.90;5.80;;;;;;;18.74;72.27;97359.65;111147;1236;94205;-83
2023/07/06 07:32:09;;;;;;;10.00;5.60;;;;;;;18.75;71.73;97361.91;111103;1236;94579;-81
2023/07/06 07:34:36;;;;;;;11.10;5.50;;;;;;;18.77;71.81;97360.87;110848;1241;94269;-82
2023/07/06 07:37:02;;;;;;;10.10;5.70;;;;;;;18.78;71.63;97362.26;110842;1239;94568;-82
2023/07/06 07:39:29;;;;;;;12.20;5.30;;;;;;;18.78;71.41;97363.30;110801;1239;94530;-83
2023/07/06 07:41:56;;;;;;;11.20;5.40;;;;;;;18.79;71.00;97364.28;110830;1239;94510;-83
2023/07/06 07:44:23;;;;;;;11.00;5.50;;;;;;;18.79;70.94;97368.56;110771;1239;94563;-83
2023/07/06 07:46:49;;;;;;;10.80;5.30;;;;;;;18.79;70.60;97374.51;110900;1239;94278;-82
2023/07/06 07:49:17;;;;;;;18.20;5.70;;;;;;;18.79;70.68;97374.25;110828;1241;102502;-81
2023/07/06 07:51:44;;;;;;;11.10;5.40;;;;;;;18.79;71.04;97373.59;110852;1239;101445;-82
2023/07/06 07:54:10;;;;;;;12.00;5.40;;;;;;;18.78;71.05;97376.09;110794;1239;95250;-82
2023/07/06 07:56:36;;;;;;;17.80;6.10;;;;;;;18.77;71.21;97380.19;110812;1239;94313;-82
2023/07/06 07:59:03;;;;;;;13.40;6.10;;;;;;;18.76;71.00;97382.48;110901;1239;94172;-82
2023/07/06 08:01:30;;;;;;;8.70;5.50;;;;;;;18.79;70.64;97381.79;110841;1239;101508;-81
2023/07/06 08:03:57;;;;;;;8.80;5.10;;;;;;;18.82;70.36;97387.67;110820;1239;94720;-82
2023/07/06 08:06:23;;;;;;;9.00;5.40;;;;;;;18.84;70.30;97390.77;111026;1236;94204;-81
2023/07/06 08:08:50;;;;;;;8.40;5.30;;;;;;;18.83;70.29;97395.92;111134;1236;94110;-82
2023/07/06 08:11:24;;;;;;;10.00;5.00;;;;;;;18.79;70.43;97394.15;111071;1236;94287;-81
2023/07/06 08:13:55;;;;;;;10.20;5.20;;;;;;;18.76;70.44;97394.77;111128;1236;101598;-81
2023/07/06 08:16:23;;;;;;;10.80;5.80;;;;;;;18.76;70.76;97394.67;111090;1236;100220;-81
2023/07/06 08:18:51;;;;;;;8.50;5.00;;;;;;;18.79;70.47;97392.95;111108;1238;94079;-82
2023/07/06 08:21:17;;;;;;;8.40;4.90;;;;;;;18.82;70.01;97393.08;111135;1236;94154;-82
2023/07/06 08:23:48;;;;;;;8.60;4.50;;;;;;;18.85;69.86;97391.00;111123;1239;94149;-81
2023/07/06 08:26:15;;;;;;;12.00;5.10;;;;;;;18.84;69.83;97388.97;111124;1236;101733;-82
2023/07/06 08:28:42;;;;;;;7.30;4.80;;;;;;;18.88;70.03;97397.86;111088;1240;94539;-83
2023/07/06 08:31:13;;;;;;;10.60;4.80;;;;;;;18.93;69.83;97404.14;111109;1238;94232;-82
2023/07/06 08:33:40;;;;;;;8.30;4.90;;;;;;;18.97;69.77;97406.67;111134;1236;94121;-83
2023/07/06 08:36:07;;;;;;;9.20;4.40;;;;;;;18.99;69.37;97413.13;111132;1236;94417;-81
2023/07/06 08:38:36;;;;;;;6.70;4.30;;;;;;;18.98;68.62;97406.89;111121;1236;94690;-81
2023/07/06 08:41:03;;;;;;;9.60;4.40;;;;;;;19.00;68.41;97402.52;111092;1236;100615;-82
2023/07/06 08:43:31;;;;;;;9.10;4.60;;;;;;;19.04;68.39;97403.77;111119;1236;94162;-82
2023/07/06 08:46:04;;;;;;;6.20;4.60;;;;;;;19.10;68.09;97403.67;111141;1236;94547;-82
2023/07/06 08:48:33;;;;;;;;;;;;;;;19.17;67.97;97403.22;111126;1236;102391;-81
2023/07/06 08:51:06;;;;;;;6.70;4.30;;;;;;;19.22;68.01;97405.42;111086;1236;100932;-83
2023/07/06 08:53:34;;;;;;;6.10;4.60;;;;;;;19.24;67.28;97406.04;111113;1236;100116;-83
2023/07/06 08:56:03;;;;;;;9.00;5.00;;;;;;;19.25;67.02;97409.98;111068;1236;94526;-82
2023/07/06 08:58:38;;;;;;;7.90;4.40;;;;;;;19.27;67.15;97408.84;110736;1236;96007;-82
2023/07/06 09:01:17;;;;;;;6.90;5.10;;;;;;;19.23;67.35;97414.41;111036;1236;102517;-82
2023/07/06 09:03:47;;;;;;;8.70;4.20;;;;;;;19.14;67.22;97413.38;111061;1239;102716;-81
2023/07/06 09:06:18;;;;;;;6.70;4.50;;;;;;;19.13;67.01;97415.95;111075;1236;99685;-83
2023/07/06 09:08:50;;;;;;;7.90;4.60;;;;;;;19.15;67.32;97418.80;111044;1236;95520;-82
2023/07/06 09:11:17;;;;;;;8.50;4.70;;;;;;;19.17;67.04;97419.37;111104;1236;95486;-82
2023/07/06 09:13:52;;;;;;;6.10;4.90;;;;;;;19.19;66.75;97421.02;111039;1236;95846;-82
2023/07/06 09:16:20;;;;;;;6.50;4.40;;;;;;;19.20;66.75;97419.44;111148;1236;101451;-82
2023/07/06 09:18:48;;;;;;;6.80;4.80;;;;;;;19.21;66.72;97422.98;111045;1236;99688;-82
2023/07/06 09:21:17;;;;;;;6.80;4.80;;;;;;;19.22;66.66;97428.30;111002;1236;95527;-82
2023/07/06 09:23:47;;;;;;;8.80;4.80;;;;;;;19.21;66.44;97426.21;111108;1236;95910;-81
2023/07/06 09:26:29;;;;;;;7.50;4.90;;;;;;;19.22;66.46;97422.50;111144;1236;102453;-81
2023/07/06 09:29:18;;;;;;;9.70;4.40;;;;;;;19.19;67.04;97421.34;111076;1239;101373;-82
2023/07/06 09:31:46;;;;;;;11.00;4.50;;;;;;;19.10;67.51;97420.30;111102;1236;99996;-80
2023/07/06 09:34:22;;;;;;;14.90;5.10;;;;;;;19.06;68.10;97420.14;111077;1236;95479;-82
2023/07/06 09:36:48;;;;;;;9.00;4.70;;;;;;;19.01;68.50;97420.11;111131;1236;95875;-82
2023/07/06 09:39:14;;;;;;;7.70;4.70;;;;;;;18.97;68.62;97421.55;111133;1236;95494;-82
2023/07/06 09:41:45;;;;;;;8.40;5.00;;;;;;;18.96;68.52;97417.75;111092;1236;95928;-81
2023/07/06 09:44:32;;;;;;;8.60;4.80;;;;;;;18.97;68.35;97415.58;111098;1236;98836;-82
2023/07/06 09:47:01;;;;;;;5.50;4.30;;;;;;;19.00;68.12;97420.14;111086;1236;95513;-81
2023/07/06 09:49:42;;;;;;;5.90;4.70;;;;;;;19.02;67.87;97418.35;111058;1236;95818;-82
2023/07/06 09:52:12;;;;;;;9.60;5.10;;;;;;;19.03;67.60;97414.48;111114;1239;102144;-81
2023/07/06 09:54:43;;;;;;;9.70;5.10;;;;;;;19.04;67.68;97414.83;111105;1236;101512;-82
2023/07/06 09:57:15;;;;;;;7.90;5.20;;;;;;;19.03;68.38;97413.39;111095;1236;100068;-82
2023/07/06 09:59:49;;;;;;;10.60;5.80;;;;;;;18.99;68.43;97418.50;111037;1238;95735;-82
2023/07/06 10:02:19;;;;;;;8.80;4.80;;;;;;;18.97;68.34;97415.25;111127;1236;95997;-83
2023/07/06 10:05:08;;;;;;;7.90;4.80;;;;;;;18.97;68.58;97421.98;111091;1236;101948;-82
2023/07/06 10:07:36;;;;;;;8.40;5.30;;;;;;;18.97;68.83;97423.95;111066;1236;109240;-82
2023/07/06 10:10:21;;;;;;;10.30;6.20;;;;;;;18.99;68.87;97426.16;111044;1236;99972;-81
2023/07/06 10:13:12;;;;;;;13.50;6.50;;;;;;;19.00;68.96;97425.95;110971;1236;95948;-81
2023/07/06 10:15:50;;;;;;;9.60;5.90;;;;;;;19.00;68.50;97424.73;111153;1236;95855;-82
2023/07/06 10:18:26;;;;;;;9.10;5.20;;;;;;;18.98;68.74;97424.50;111074;1236;103555;-81
2023/07/06 10:21:04;;;;;;;6.90;5.30;;;;;;;19.00;68.60;97423.27;111060;1236;101435;-82
2023/07/06 10:23:54;;;;;;;9.90;5.90;;;;;;;19.03;68.68;97421.91;111084;1236;99611;-81
2023/07/06 10:26:54;;;;;;;10.00;6.00;;;;;;;19.05;68.13;97417.77;111074;1236;95498;-82
2023/07/06 10:29:38;;;;;;;8.30;5.00;;;;;;;19.07;68.04;97414.16;111050;1238;95942;-83
2023/07/06 10:32:33;;;;;;;8.90;5.80;;;;;;;19.11;67.48;97412.33;111121;1236;103500;-81
2023/07/06 10:35:12;;;;;;;9.30;5.50;;;;;;;19.14;67.25;97412.68;111028;1236;101632;-82
2023/07/06 10:37:39;;;;;;;5.90;4.10;;;;;;;19.19;67.06;97408.32;111108;1236;98828;-82
2023/07/06 10:40:20;;;;;;;9.30;4.80;;;;;;;19.23;66.72;97408.06;111109;1236;95532;-82
2023/07/06 10:42:52;;;;;;;6.80;4.20;;;;;;;19.25;66.78;97402.23;111110;1236;96373;-82
2023/07/06 10:45:38;;;;;;;9.10;4.30;;;;;;;19.31;66.39;97403.40;111108;1236;103549;-82
2023/07/06 10:48:28;;;;;;;9.40;4.60;;;;;;;19.37;65.54;97403.14;111069;1236;101345;-82
2023/07/06 10:51:28;;;;;;;7.20;4.40;;;;;;;19.42;65.18;97404.11;110735;1236;100056;-82
2023/07/06 10:54:19;;;;;;;8.00;4.60;;;;;;;19.48;65.24;97403.55;111093;1236;95501;-82
2023/07/06 10:57:00;;;;;;;12.10;4.50;;;;;;;19.56;64.79;97402.52;111118;1236;95942;-82
2023/07/06 11:00:05;;;;;;;10.90;4.40;;;;;;;19.63;64.63;97406.02;111104;1237;111144;-82
2023/07/06 11:02:40;;;;;;;8.40;4.30;;;;;;;19.68;64.95;97407.06;110506;1244;100221;-82
2023/07/06 11:05:24;;;;;;;7.10;4.80;;;;;;;19.71;64.63;97412.77;110450;1244;99871;-81
2023/07/06 11:07:57;;;;;;;6.80;4.00;;;;;;;19.76;64.20;97418.05;110495;1243;95567;-82
2023/07/06 11:10:37;;;;;;;6.40;4.40;;;;;;;19.80;63.91;97423.59;110488;1243;95967;-83
2023/07/06 11:13:04;;;;;;;7.00;4.50;;;;;;;19.85;63.69;97424.69;110514;1244;102103;-84
2023/07/06 11:15:38;;;;;;;12.30;4.40;;;;;;;19.91;63.56;97424.17;110524;1243;95539;-82
2023/07/06 11:18:19;;;;;;;6.30;4.30;;;;;;;19.94;63.47;97426.90;110464;1243;99181;-83
2023/07/06 11:20:48;;;;;;;10.40;4.60;;;;;;;19.96;63.57;97427.34;110493;1243;95549;-83
2023/07/06 11:23:19;;;;;;;7.40;4.80;;;;;;;19.98;63.38;97426.75;110199;1247;95975;-84
2023/07/06 11:25:53;;;;;;;6.90;4.30;;;;;;;20.02;63.12;97430.06;110204;1247;103804;-83
2023/07/06 11:28:24;;;;;;;7.70;4.60;;;;;;;20.07;62.82;97437.23;109931;1247;101794;-82
2023/07/06 11:31:10;;;;;;;8.60;4.40;;;;;;;20.12;62.95;97438.84;110158;1247;100416;-83
2023/07/06 11:33:55;;;;;;;6.50;4.60;;;;;;;20.14;63.35;97438.90;110142;1246;95591;-82
2023/07/06 11:36:39;;;;;;;8.20;4.80;;;;;;;20.12;63.09;97439.45;110164;1247;95992;-83
2023/07/06 11:39:20;;;;;;;7.40;5.10;;;;;;;20.05;62.98;97437.44;110447;1241;102467;-82